Saltcoats, Canada
Current Conditions -  °F | °C
As of 10:00 PM on Thursday 18 Dec 2014 (Local Time) from CYQV Reporting Station
Overcast Overcast  
Wind Chill:   Ceiling: 700
Heat Index: 18°   Visibility: 7mi
Dew Point: 16°   Wind: 8mph
Humidity: 93%   Direction: 150°SSE
Pressure: 29.93"   Gusts: NA
Location:  51.04°N, 102.16°W
Report Text: CYQV 190400Z AUTO 15007KT 7SM OVC007 M08/M09 A2993 RMK SLP171
Loading
Personal Weather Stations






























Interactive Weather Map New forecast layout! Learn more

10-Day Weather Forecast

Advertisements
Track Severe Weather on mobile